Time;durP1;ratioP1;P1;durP2;ratioP2;P2;SDS_P1;SDS_P2;PMS_P1;PMS_P2;Temp;Humidity;BMP_temperature;BMP_pressure;BME280_temperature;BME280_humidity;BME280_pressure;Samples;Min_cycle;Max_cycle;Signal;HPM_P1;HPM_P2
2022/10/05 00:01:53;;;;;;;6.50;6.00;;;;;;;3.81;100.00;97741.41;4909208;28;20206;-58
2022/10/05 00:04:23;;;;;;;6.50;5.83;;;;;;;3.81;100.00;97736.16;4929149;28;20531;-63
2022/10/05 00:06:57;;;;;;;7.03;6.47;;;;;;;3.99;100.00;97739.03;4880701;28;21115;-63
2022/10/05 00:09:25;;;;;;;7.93;7.40;;;;;;;3.94;100.00;97736.78;4927995;28;20659;-63
2022/10/05 00:11:54;;;;;;;7.97;7.17;;;;;;;3.88;100.00;97727.66;4926639;28;21224;-62
2022/10/05 00:14:26;;;;;;;7.07;6.53;;;;;;;3.88;100.00;97732.91;4929557;28;20213;-63
2022/10/05 00:16:56;;;;;;;9.20;6.27;;;;;;;3.90;100.00;97728.38;4909607;28;20232;-62
2022/10/05 00:19:27;;;;;;;7.37;6.80;;;;;;;3.90;100.00;97722.28;4928613;28;20310;-60
2022/10/05 00:21:57;;;;;;;6.50;6.03;;;;;;;3.93;100.00;97718.59;4898146;28;20211;-63
2022/10/05 00:24:25;;;;;;;6.80;6.20;;;;;;;3.99;100.00;97723.31;4920939;28;20557;-62
2022/10/05 00:26:54;;;;;;;6.63;5.87;;;;;;;4.00;100.00;97720.56;4927112;28;20676;-59
2022/10/05 00:29:25;;;;;;;7.87;6.60;;;;;;;4.01;100.00;97714.38;4871750;28;20958;-62
2022/10/05 00:31:54;;;;;;;6.80;6.20;;;;;;;4.00;100.00;97720.56;4917847;28;20218;-62
2022/10/05 00:34:23;;;;;;;7.47;6.77;;;;;;;3.91;100.00;97721.31;4925313;28;20424;-62
2022/10/05 00:36:51;;;;;;;6.40;5.90;;;;;;;3.80;100.00;97722.25;4906014;28;20699;-64
2022/10/05 00:39:19;;;;;;;7.90;7.10;;;;;;;3.72;100.00;97715.00;4925200;28;20305;-62
2022/10/05 00:42:04;;;;;;;7.20;6.00;;;;;;;3.75;100.00;97712.13;4929536;28;20420;-62
2022/10/05 00:44:39;;;;;;;6.60;6.07;;;;;;;3.73;100.00;97710.56;4883676;28;20280;-61
2022/10/05 00:47:17;;;;;;;6.73;6.20;;;;;;;3.63;100.00;97697.44;4926246;28;20815;-61
2022/10/05 00:49:59;;;;;;;6.27;5.73;;;;;;;3.65;100.00;97710.38;4927864;28;20248;-61
2022/10/05 00:52:32;;;;;;;6.10;5.60;;;;;;;3.57;100.00;97701.38;4903929;28;21018;-59
2022/10/05 00:55:08;;;;;;;5.67;5.27;;;;;;;3.51;100.00;97709.75;4929639;28;20574;-61
2022/10/05 00:57:45;;;;;;;5.63;5.20;;;;;;;3.45;100.00;97705.84;4927076;28;20209;-61
2022/10/05 01:00:16;;;;;;;5.00;4.70;;;;;;;3.41;100.00;97693.09;4880892;28;20245;-62
2022/10/05 01:02:54;;;;;;;7.80;6.17;;;;;;;3.42;100.00;97686.94;4928065;28;22158;-60
2022/10/05 01:05:33;;;;;;;10.77;7.30;;;;;;;3.42;100.00;97682.50;4924313;28;20268;-61
2022/10/05 01:08:07;;;;;;;9.73;7.83;;;;;;;3.45;100.00;97684.88;4904056;28;20510;-63
2022/10/05 01:10:40;;;;;;;8.60;6.97;;;;;;;3.47;100.00;97685.59;4926996;28;22344;-63
2022/10/05 01:13:14;;;;;;;8.53;7.67;;;;;;;3.48;100.00;97675.94;4928283;28;20214;-63
2022/10/05 01:15:45;;;;;;;6.50;5.90;;;;;;;3.43;100.00;97675.50;4881037;28;20222;-62
2022/10/05 01:18:19;;;;;;;6.17;5.57;;;;;;;3.38;100.00;97672.41;4925501;28;21839;-65
2022/10/05 01:20:56;;;;;;;6.53;6.00;;;;;;;3.30;100.00;97686.97;4926474;28;20592;-63
2022/10/05 01:23:54;;;;;;;6.80;6.30;;;;;;;3.27;100.00;97683.78;4902915;28;20213;-63
2022/10/05 01:26:47;;;;;;;6.63;6.03;;;;;;;3.25;100.00;97683.06;4842271;29;20213;-63
2022/10/05 01:29:22;;;;;;;6.57;6.00;;;;;;;3.24;100.00;97677.00;4841101;29;20239;-62
2022/10/05 01:31:54;;;;;;;6.60;6.00;;;;;;;3.17;100.00;97684.50;4798641;29;20704;-62
2022/10/05 01:34:28;;;;;;;5.93;5.53;;;;;;;3.15;100.00;97685.59;4840525;29;20247;-62
2022/10/05 01:37:03;;;;;;;5.17;4.87;;;;;;;3.16;100.00;97682.84;4842911;29;20239;-62
2022/10/05 01:39:36;;;;;;;6.80;5.20;;;;;;;3.26;100.00;97684.75;4821873;29;20539;-58
2022/10/05 01:42:12;;;;;;;6.00;5.50;;;;;;;3.23;100.00;97677.94;4843364;29;21238;-62
2022/10/05 01:44:48;;;;;;;5.63;5.13;;;;;;;3.23;100.00;97679.75;4843053;29;20794;-62
2022/10/05 01:47:23;;;;;;;6.20;5.60;;;;;;;3.16;100.00;97674.19;4794600;29;20226;-62
2022/10/05 01:49:59;;;;;;;5.63;5.27;;;;;;;3.12;100.00;97676.19;4843088;29;20857;-61
2022/10/05 01:52:34;;;;;;;5.10;4.80;;;;;;;3.10;100.00;97672.88;4841538;29;20303;-62
2022/10/05 01:55:14;;;;;;;6.90;5.83;;;;;;;3.01;100.00;97679.69;4822240;29;20381;-61
2022/10/05 01:57:57;;;;;;;6.03;5.53;;;;;;;2.97;100.00;97682.69;4843104;29;20215;-61
2022/10/05 02:00:28;;;;;;;7.63;5.47;;;;;;;2.98;100.00;97686.97;4840634;29;21118;-61
2022/10/05 02:03:01;;;;;;;5.50;5.00;;;;;;;3.00;100.00;97683.25;4862116;28;20802;-60
2022/10/05 02:05:34;;;;;;;5.87;5.37;;;;;;;2.97;100.00;97686.13;4925888;28;20625;-63
2022/10/05 02:08:07;;;;;;;6.27;5.67;;;;;;;2.97;100.00;97680.06;4926510;28;20773;-61
2022/10/05 02:10:37;;;;;;;6.03;4.83;;;;;;;2.95;100.00;97663.66;4900207;28;20225;-61
2022/10/05 02:13:10;;;;;;;5.93;5.43;;;;;;;2.90;100.00;97656.16;4926609;28;20217;-61
2022/10/05 02:15:44;;;;;;;5.23;4.60;;;;;;;2.89;100.00;97675.44;4924983;28;20228;-59
2022/10/05 02:18:16;;;;;;;5.53;4.97;;;;;;;2.86;100.00;97675.69;4882486;28;20225;-61
2022/10/05 02:20:45;;;;;;;5.87;5.33;;;;;;;2.94;100.00;97680.31;4923412;28;20260;-63
2022/10/05 02:23:18;;;;;;;5.93;5.43;;;;;;;2.96;100.00;97681.03;4927210;28;20212;-61
2022/10/05 02:25:48;;;;;;;6.03;5.37;;;;;;;2.96;100.00;97678.41;4901657;28;20544;-60
2022/10/05 02:28:22;;;;;;;6.27;5.77;;;;;;;2.97;100.00;97690.53;4926430;28;20216;-61
2022/10/05 02:30:54;;;;;;;5.87;5.37;;;;;;;2.95;100.00;97697.69;4925903;28;20494;-61
2022/10/05 02:33:28;;;;;;;6.20;5.50;;;;;;;2.92;100.00;97690.91;4885091;28;20222;-61
2022/10/05 02:36:01;;;;;;;6.23;5.30;;;;;;;2.83;100.00;97679.38;4865421;28;20220;-61
2022/10/05 02:38:36;;;;;;;5.53;5.13;;;;;;;2.85;100.00;97685.34;4907370;28;20223;-61
2022/10/05 02:41:08;;;;;;;6.60;6.03;;;;;;;2.77;100.00;97685.09;4906371;28;20340;-60
2022/10/05 02:43:43;;;;;;;6.27;5.67;;;;;;;2.70;100.00;97676.09;4930547;28;20612;-58
2022/10/05 02:46:19;;;;;;;5.37;4.97;;;;;;;2.67;100.00;97678.94;4908189;28;20273;-59
2022/10/05 02:48:55;;;;;;;5.70;5.27;;;;;;;2.65;100.00;97665.16;4929542;28;20216;-62
2022/10/05 02:51:26;;;;;;;5.40;5.00;;;;;;;2.62;100.00;97671.44;4885724;28;20221;-62
2022/10/05 02:54:01;;;;;;;7.23;6.60;;;;;;;2.60;100.00;97661.13;4928069;28;20471;-61
2022/10/05 02:56:36;;;;;;;6.07;5.67;;;;;;;2.55;100.00;97665.88;4906552;28;20792;-61
2022/10/05 02:59:09;;;;;;;6.57;5.97;;;;;;;2.54;100.00;97668.63;4927074;28;20229;-62
2022/10/05 03:01:41;;;;;;;6.00;5.47;;;;;;;2.63;100.00;97672.28;4907770;28;20213;-61
2022/10/05 03:04:20;;;;;;;5.23;4.83;;;;;;;2.66;100.00;97670.28;4928288;28;20884;-62
2022/10/05 03:06:54;;;;;;;5.83;5.43;;;;;;;2.67;100.00;97669.31;4881453;28;21120;-62
2022/10/05 03:09:27;;;;;;;6.13;5.53;;;;;;;2.62;100.00;97662.78;4928776;28;20273;-61
2022/10/05 03:12:02;;;;;;;5.57;5.23;;;;;;;2.48;100.00;97649.03;4914521;28;20229;-62
2022/10/05 03:14:36;;;;;;;5.27;4.87;;;;;;;2.58;100.00;97651.72;4926518;28;20206;-62
2022/10/05 03:17:10;;;;;;;5.33;4.97;;;;;;;2.56;100.00;97661.47;4907961;28;20210;-62
2022/10/05 03:19:55;;;;;;;5.93;5.40;;;;;;;2.60;100.00;97655.03;4927009;28;21563;-58
2022/10/05 03:22:30;;;;;;;8.73;6.80;;;;;;;2.72;100.00;97648.84;4876168;28;20714;-59
2022/10/05 03:25:12;;;;;;;7.03;6.33;;;;;;;2.84;100.00;97648.81;4924627;28;20575;-61
2022/10/05 03:27:42;;;;;;;6.37;5.80;;;;;;;2.91;100.00;97649.16;4880118;28;20752;-58
2022/10/05 03:30:15;;;;;;;7.50;6.67;;;;;;;2.95;100.00;97635.69;4927156;28;20241;-62
2022/10/05 03:32:54;;;;;;;8.00;7.20;;;;;;;2.92;100.00;97629.88;4903335;28;20206;-63
2022/10/05 03:35:27;;;;;;;7.50;6.90;;;;;;;2.89;100.00;97628.34;4918667;28;20233;-59
2022/10/05 03:38:03;;;;;;;7.93;7.20;;;;;;;2.85;100.00;97629.53;4902974;28;21674;-58
2022/10/05 03:40:35;;;;;;;8.27;6.60;;;;;;;2.96;100.00;97631.28;4926446;28;20233;-59
2022/10/05 03:43:17;;;;;;;7.40;6.80;;;;;;;2.91;100.00;97630.84;4907372;28;20674;-58
2022/10/05 03:45:48;;;;;;;7.40;6.30;;;;;;;2.83;100.00;97629.66;4903875;28;20465;-61
2022/10/05 03:48:22;;;;;;;7.20;6.50;;;;;;;2.78;100.00;97636.22;4907035;28;20837;-58
2022/10/05 03:50:57;;;;;;;7.00;6.37;;;;;;;2.69;100.00;97637.78;4927991;28;20759;-62
2022/10/05 03:53:28;;;;;;;6.03;5.60;;;;;;;2.67;100.00;97626.63;4883231;28;20214;-61
2022/10/05 03:55:59;;;;;;;6.97;6.37;;;;;;;2.77;100.00;97632.75;4928520;28;20202;-62
2022/10/05 03:58:36;;;;;;;8.05;7.32;;;;;;;2.83;100.00;97632.25;4890908;28;20785;-61
2022/10/05 04:01:08;;;;;;;8.47;6.83;;;;;;;2.91;100.00;97634.28;4929037;28;20236;-61
2022/10/05 04:03:41;;;;;;;7.45;6.85;;;;;;;2.90;100.00;97635.22;4901634;28;20462;-62
2022/10/05 04:06:14;;;;;;;8.85;8.00;;;;;;;2.87;100.00;97635.47;4928417;28;20464;-64
2022/10/05 04:08:46;;;;;;;7.90;7.07;;;;;;;2.88;100.00;97640.59;4882022;28;20582;-61
2022/10/05 04:11:18;;;;;;;6.67;6.17;;;;;;;2.81;100.00;97636.78;4928594;28;20212;-64
2022/10/05 04:13:49;;;;;;;8.50;7.57;;;;;;;2.99;100.00;97644.94;4904376;28;20218;-62
2022/10/05 04:16:20;;;;;;;8.87;7.90;;;;;;;3.09;100.00;97645.03;4905949;28;20816;-64
2022/10/05 04:18:51;;;;;;;8.37;7.60;;;;;;;3.07;100.00;97651.38;4904842;28;20419;-63
2022/10/05 04:21:21;;;;;;;8.27;7.60;;;;;;;3.03;100.00;97662.09;4928590;28;20225;-60
2022/10/05 04:23:55;;;;;;;10.60;9.10;;;;;;;2.93;100.00;97657.72;4881956;28;21646;-61
2022/10/05 04:26:31;;;;;;;8.87;8.07;;;;;;;2.80;100.00;97656.06;4926257;28;20233;-58
2022/10/05 04:29:04;;;;;;;12.07;8.00;;;;;;;2.66;100.00;97661.59;4906463;28;20708;-58
2022/10/05 04:32:00;;;;;;;7.83;7.13;;;;;;;2.50;100.00;97654.97;4902234;28;20271;-63
2022/10/05 04:34:44;;;;;;;8.25;7.50;;;;;;;2.37;100.00;97651.63;4898182;28;20504;-62
2022/10/05 04:37:19;;;;;;;8.40;7.60;;;;;;;2.35;100.00;97649.16;4905401;28;20205;-63
2022/10/05 04:39:57;;;;;;;9.33;8.30;;;;;;;2.42;100.00;97644.25;4882505;28;20649;-60
2022/10/05 04:42:31;;;;;;;9.80;8.90;;;;;;;2.30;100.00;97633.81;4887011;28;20217;-61
2022/10/05 04:45:08;;;;;;;11.00;9.88;;;;;;;2.25;100.00;97632.50;4896593;28;21231;-63
2022/10/05 04:48:11;;;;;;;9.63;8.73;;;;;;;2.30;100.00;97643.47;4928553;28;20209;-62
2022/10/05 04:50:49;;;;;;;11.13;10.10;;;;;;;2.36;100.00;97649.97;4847498;29;20243;-62
2022/10/05 04:53:24;;;;;;;8.80;8.00;;;;;;;2.35;100.00;97645.69;4846529;29;21701;-60
2022/10/05 04:55:57;;;;;;;11.10;10.10;;;;;;;2.29;100.00;97626.91;4865070;29;20771;-62
2022/10/05 04:58:36;;;;;;;8.63;7.80;;;;;;;2.33;100.00;97640.59;4802800;29;20216;-60
2022/10/05 05:01:19;;;;;;;10.25;9.40;;;;;;;2.27;100.00;97631.44;4862033;29;20837;-52
2022/10/05 05:04:01;;;;;;;9.70;8.90;;;;;;;2.25;100.00;97617.66;4841536;29;21411;-55
2022/10/05 05:06:35;;;;;;;9.33;8.20;;;;;;;2.29;100.00;97615.66;4845487;29;20235;-55
2022/10/05 05:09:27;;;;;;;11.30;9.80;;;;;;;2.46;100.00;97606.44;4867291;29;21678;-57
2022/10/05 05:12:04;;;;;;;12.27;10.97;;;;;;;2.72;100.00;97603.53;4866848;29;20695;-56
2022/10/05 05:14:44;;;;;;;10.90;9.98;;;;;;;2.75;100.00;97598.88;4802294;29;21856;-62
2022/10/05 05:17:21;;;;;;;10.97;9.60;;;;;;;2.87;100.00;97607.53;4842106;29;20480;-58
2022/10/05 05:19:57;;;;;;;9.03;8.13;;;;;;;3.05;100.00;97601.72;4846523;29;20499;-61
2022/10/05 05:22:34;;;;;;;11.33;10.23;;;;;;;3.06;100.00;97606.00;4841529;29;21019;-63
2022/10/05 05:25:17;;;;;;;10.97;9.87;;;;;;;3.08;100.00;97604.09;4899107;28;20671;-66
2022/10/05 05:27:48;;;;;;;9.20;8.40;;;;;;;3.44;100.00;97606.44;4930366;28;20724;-62
2022/10/05 05:30:21;;;;;;;9.37;8.57;;;;;;;3.55;100.00;97601.09;4860768;28;20237;-63
2022/10/05 05:33:08;;;;;;;9.00;7.67;;;;;;;3.50;100.00;97610.31;4927849;28;20822;-64
2022/10/05 05:36:01;;;;;;;8.53;7.83;;;;;;;3.53;100.00;97623.16;4880808;28;20444;-65
2022/10/05 05:38:34;;;;;;;7.90;7.10;;;;;;;3.47;100.00;97620.09;4924546;28;20431;-64
2022/10/05 05:41:11;;;;;;;10.35;9.25;;;;;;;3.53;100.00;97620.53;4927245;28;20510;-62
2022/10/05 05:43:52;;;;;;;8.80;7.90;;;;;;;3.73;100.00;97618.84;4926168;28;20384;-61
2022/10/05 05:46:24;;;;;;;9.65;8.73;;;;;;;3.81;100.00;97615.59;4877429;28;20468;-63
2022/10/05 05:49:16;;;;;;;8.82;7.93;;;;;;;3.74;100.00;97626.59;4926924;28;21998;-67
2022/10/05 05:51:50;;;;;;;8.90;8.07;;;;;;;3.81;100.00;97631.31;4884186;28;21120;-60
2022/10/05 05:54:27;;;;;;;7.60;7.00;;;;;;;3.87;100.00;97626.38;4926343;28;20239;-60
2022/10/05 05:56:58;;;;;;;8.13;7.43;;;;;;;3.97;100.00;97634.28;4928594;28;20794;-64
2022/10/05 05:59:31;;;;;;;9.47;7.97;;;;;;;4.04;100.00;97634.59;4924378;28;20737;-60
2022/10/05 06:02:04;;;;;;;11.60;10.45;;;;;;;4.05;100.00;97617.91;4879542;28;21280;-62
2022/10/05 06:04:35;;;;;;;10.30;9.37;;;;;;;4.26;100.00;97644.06;4924545;28;20208;-61
2022/10/05 06:07:05;;;;;;;9.07;8.20;;;;;;;4.32;100.00;97643.53;4860238;28;20233;-64
2022/10/05 06:09:37;;;;;;;10.50;9.43;;;;;;;4.37;100.00;97643.13;4929533;28;20468;-60
2022/10/05 06:12:09;;;;;;;8.50;7.73;;;;;;;4.43;100.00;97642.59;4908637;28;20218;-58
2022/10/05 06:14:40;;;;;;;12.90;11.70;;;;;;;4.46;100.00;97633.66;4930298;28;21663;-64
2022/10/05 06:17:12;;;;;;;13.87;12.47;;;;;;;4.57;100.00;97638.78;4883624;28;20851;-64
2022/10/05 06:19:41;;;;;;;10.60;8.23;;;;;;;4.65;100.00;97645.97;4927867;28;20232;-64
2022/10/05 06:22:14;;;;;;;9.07;8.17;;;;;;;4.70;100.00;97649.03;4909934;28;20309;-63
2022/10/05 06:24:57;;;;;;;10.85;9.95;;;;;;;4.79;100.00;97647.41;4908107;28;21443;-63
2022/10/05 06:27:26;;;;;;;10.03;9.03;;;;;;;4.86;100.00;97642.41;4909435;28;20225;-59
2022/10/05 06:30:05;;;;;;;9.67;8.77;;;;;;;4.98;100.00;97636.09;4927923;28;21063;-62
2022/10/05 06:32:35;;;;;;;9.30;8.30;;;;;;;5.04;100.00;97639.94;4887698;28;20866;-61
2022/10/05 06:35:13;;;;;;;11.20;9.80;;;;;;;5.19;100.00;97641.19;4929694;28;20214;-62
2022/10/05 06:38:03;;;;;;;9.80;7.87;;;;;;;5.33;100.00;97633.84;4907089;28;20212;-61
2022/10/05 06:40:42;;;;;;;9.65;8.68;;;;;;;5.56;100.00;97655.41;4928976;28;20778;-63
2022/10/05 06:43:21;;;;;;;8.73;8.07;;;;;;;5.84;100.00;97662.53;4906015;28;20447;-64
2022/10/05 06:46:00;;;;;;;9.88;9.07;;;;;;;5.97;100.00;97672.75;4930061;28;20482;-64
2022/10/05 06:48:41;;;;;;;9.37;7.87;;;;;;;6.06;100.00;97674.56;4889212;28;20214;-58
2022/10/05 06:51:15;;;;;;;8.68;7.88;;;;;;;6.21;100.00;97677.56;4850741;28;21869;-59
2022/10/05 06:53:48;;;;;;;7.83;7.13;;;;;;;6.17;100.00;97663.88;4929886;28;20220;-60
2022/10/05 06:56:21;;;;;;;7.82;7.22;;;;;;;6.43;100.00;97676.38;4905782;28;21048;-62
2022/10/05 06:58:55;;;;;;;8.75;7.97;;;;;;;6.57;100.00;97682.97;4930855;28;21049;-61
2022/10/05 07:01:32;;;;;;;7.70;7.00;;;;;;;6.53;100.00;97697.38;4929580;28;20465;-61
2022/10/05 07:04:10;;;;;;;8.97;8.23;;;;;;;6.51;100.00;97692.28;4903186;28;20809;-61
2022/10/05 07:06:44;;;;;;;9.20;8.30;;;;;;;6.59;100.00;97690.72;4926840;28;20465;-60
2022/10/05 07:09:21;;;;;;;9.55;8.50;;;;;;;6.67;100.00;97701.34;4926993;28;21605;-60
2022/10/05 07:12:03;;;;;;;8.53;7.83;;;;;;;6.75;100.00;97705.88;4909032;28;20209;-63
2022/10/05 07:14:43;;;;;;;10.93;8.10;;;;;;;6.86;100.00;97710.94;4933313;28;20923;-64
2022/10/05 07:17:22;;;;;;;11.13;10.02;;;;;;;7.06;100.00;97716.94;4926059;28;20452;-60
2022/10/05 07:19:55;;;;;;;8.93;8.23;;;;;;;7.22;100.00;97702.28;4927309;28;22564;-63
2022/10/05 07:22:55;;;;;;;8.55;7.78;;;;;;;7.52;100.00;97716.88;4902407;28;20858;-62
2022/10/05 07:25:26;;;;;;;9.27;8.57;;;;;;;7.61;100.00;97723.06;4912793;28;20796;-59
2022/10/05 07:27:59;;;;;;;7.77;7.07;;;;;;;7.80;100.00;97729.13;4907441;28;20702;-60
2022/10/05 07:30:29;;;;;;;8.13;7.33;;;;;;;8.00;100.00;97726.34;4926316;28;20468;-61
2022/10/05 07:32:59;;;;;;;7.63;7.00;;;;;;;8.21;100.00;97720.69;4929493;28;20213;-63
2022/10/05 07:38:31;;;;;;;9.60;8.77;;;;;;;8.66;100.00;97719.63;4927779;28;20539;-61
2022/10/05 07:41:05;;;;;;;8.32;7.53;;;;;;;8.83;100.00;97723.19;4926185;28;20468;-60
2022/10/05 07:43:41;;;;;;;8.35;7.50;;;;;;;8.93;100.00;97716.94;4908157;28;20559;-60
2022/10/05 07:46:36;;;;;;;8.88;7.22;;;;;;;9.20;100.00;97705.25;4932049;28;20616;-58
2022/10/05 07:49:09;;;;;;;6.57;6.07;;;;;;;9.32;100.00;97704.97;4926702;28;20442;-59
2022/10/05 07:51:40;;;;;;;7.50;6.90;;;;;;;9.36;100.00;97709.75;4927258;28;20460;-61
2022/10/05 07:54:16;;;;;;;16.43;14.50;;;;;;;9.64;100.00;97704.16;4886748;28;20336;-59
2022/10/05 07:56:45;;;;;;;15.13;12.43;;;;;;;9.82;100.00;97696.06;4927462;28;20210;-61
2022/10/05 07:59:25;;;;;;;7.73;7.00;;;;;;;9.94;100.00;97696.53;4914140;28;20447;-60
2022/10/05 08:02:01;;;;;;;7.00;6.50;;;;;;;10.26;100.00;97696.66;4926551;28;20205;-60
2022/10/05 08:04:36;;;;;;;6.90;6.40;;;;;;;10.31;100.00;97693.50;4931032;28;20842;-58
2022/10/05 08:07:12;;;;;;;6.50;6.00;;;;;;;10.52;100.00;97693.78;4926948;28;20469;-60
2022/10/05 08:09:44;;;;;;;7.43;6.82;;;;;;;10.68;100.00;97689.44;4881756;28;20468;-60
2022/10/05 08:12:32;;;;;;;6.43;5.93;;;;;;;10.90;100.00;97689.66;4927175;28;21023;-61
2022/10/05 08:15:06;;;;;;;7.13;6.50;;;;;;;10.68;100.00;97670.88;4903505;28;20422;-60
2022/10/05 08:17:48;;;;;;;7.07;6.30;;;;;;;10.81;100.00;97691.53;4929583;28;20214;-60
2022/10/05 08:20:28;;;;;;;9.00;6.93;;;;;;;11.17;100.00;97690.97;4928366;28;20984;-59
2022/10/05 08:23:01;;;;;;;6.87;6.37;;;;;;;11.33;100.00;97682.09;4889540;28;20601;-58
2022/10/05 08:25:40;;;;;;;6.93;6.32;;;;;;;11.58;100.00;97682.75;4931192;28;20802;-60
2022/10/05 08:28:12;;;;;;;7.13;6.53;;;;;;;11.63;100.00;97674.25;4905236;28;20572;-53
2022/10/05 08:30:54;;;;;;;7.27;6.57;;;;;;;11.88;100.00;97677.50;4931442;28;20686;-61
2022/10/05 08:33:23;;;;;;;4.87;4.57;;;;;;;11.87;100.00;97673.19;4932240;28;20206;-62
2022/10/05 08:35:59;;;;;;;6.57;5.97;;;;;;;11.94;100.00;97675.97;4928313;28;20455;-60
2022/10/05 08:38:32;;;;;;;6.17;5.33;;;;;;;11.86;100.00;97673.41;4930996;28;20194;-61
2022/10/05 08:41:26;;;;;;;5.73;5.13;;;;;;;11.86;100.00;97665.44;4881168;28;20274;-59
2022/10/05 08:44:26;;;;;;;5.63;5.23;;;;;;;11.87;100.00;97667.91;4908792;28;20210;-57
2022/10/05 08:47:10;;;;;;;6.67;6.13;;;;;;;11.80;100.00;97671.47;4929164;28;20290;-61
2022/10/05 08:50:03;;;;;;;5.20;4.80;;;;;;;11.70;100.00;97675.19;4929235;28;20241;-63
2022/10/05 08:52:36;;;;;;;6.07;5.20;;;;;;;11.87;100.00;97678.50;4920824;28;20206;-59
2022/10/05 08:55:25;;;;;;;6.17;5.77;;;;;;;11.79;100.00;97678.59;4885610;28;21084;-58
2022/10/05 08:58:07;;;;;;;5.83;5.23;;;;;;;11.96;100.00;97675.81;4877110;28;20760;-59
2022/10/05 09:00:40;;;;;;;5.53;5.13;;;;;;;12.08;100.00;97682.34;4932641;28;21184;-60
2022/10/05 09:03:22;;;;;;;5.10;4.77;;;;;;;12.10;100.00;97672.38;4933866;28;20482;-59
2022/10/05 09:06:07;;;;;;;5.33;4.83;;;;;;;12.15;100.00;97671.84;4931897;28;20555;-62
2022/10/05 09:08:52;;;;;;;6.40;5.80;;;;;;;12.18;100.00;97682.09;4930565;28;20432;-61
2022/10/05 09:11:25;;;;;;;6.13;5.53;;;;;;;12.34;100.00;97691.72;4906631;28;20719;-61
2022/10/05 09:14:14;;;;;;;6.47;5.17;;;;;;;12.58;100.00;97687.13;4884661;28;20217;-64
2022/10/05 09:16:53;;;;;;;5.57;5.07;;;;;;;12.86;99.35;97683.78;4909808;28;20221;-61
2022/10/05 09:19:49;;;;;;;21.07;18.83;;;;;;;12.99;98.38;97683.94;4926182;28;20240;-60
2022/10/05 09:22:24;;;;;;;7.20;5.73;;;;;;;13.01;96.43;97678.44;4930426;28;20210;-62
2022/10/05 09:24:56;;;;;;;6.37;5.40;;;;;;;13.02;96.86;97683.56;4931270;28;20732;-60
2022/10/05 09:27:34;;;;;;;5.33;4.87;;;;;;;12.99;95.59;97681.28;4883814;28;21790;-61
2022/10/05 09:30:20;;;;;;;5.47;4.60;;;;;;;13.19;96.07;97683.34;4930426;28;20456;-61
2022/10/05 09:33:32;;;;;;;5.70;5.20;;;;;;;13.12;94.83;97685.13;4908140;28;20938;-58
2022/10/05 09:36:29;;;;;;;4.60;4.30;;;;;;;13.04;95.14;97680.72;4931003;28;20209;-60
2022/10/05 09:39:18;;;;;;;7.60;4.83;;;;;;;13.09;93.83;97688.16;4929993;28;20252;-58
2022/10/05 09:42:22;;;;;;;5.30;4.90;;;;;;;13.30;93.68;97676.72;4929291;28;20247;-61
2022/10/05 09:45:17;;;;;;;5.50;5.10;;;;;;;13.31;91.49;97679.16;4877441;28;21641;-58
2022/10/05 09:48:24;;;;;;;5.77;4.83;;;;;;;13.44;91.06;97669.69;4902535;28;20272;-57
2022/10/05 09:51:19;;;;;;;5.97;4.80;;;;;;;13.74;90.67;97680.19;4897500;28;20229;-60
2022/10/05 09:54:42;;;;;;;7.07;6.53;;;;;;;13.85;89.34;97670.88;4929369;28;20688;-58
2022/10/05 09:57:36;;;;;;;5.33;4.93;;;;;;;13.92;88.82;97665.59;4927173;28;20636;-60
2022/10/05 10:00:14;;;;;;;6.60;6.03;;;;;;;14.10;87.97;97657.94;4878610;28;20245;-61
2022/10/05 10:03:17;;;;;;;4.77;4.47;;;;;;;14.17;86.10;97664.13;4928850;28;20214;-60
2022/10/05 10:06:09;;;;;;;5.73;5.33;;;;;;;14.13;85.81;97657.53;4892788;28;20458;-60
2022/10/05 10:08:45;;;;;;;6.53;6.03;;;;;;;14.29;85.83;97653.75;4894619;28;20230;-61
2022/10/05 10:11:23;;;;;;;5.77;5.20;;;;;;;14.36;84.47;97644.94;4890041;28;20498;-59
2022/10/05 10:14:25;;;;;;;5.87;5.37;;;;;;;14.39;83.94;97644.56;4892025;28;20211;-63
2022/10/05 10:17:22;;;;;;;6.53;5.50;;;;;;;14.41;84.17;97627.34;4890965;28;20785;-61
2022/10/05 10:20:12;;;;;;;6.43;5.90;;;;;;;14.48;85.40;97630.88;4867036;28;20223;-60
2022/10/05 10:22:57;;;;;;;8.30;5.47;;;;;;;14.70;82.87;97646.81;4890675;28;20222;-61
2022/10/05 10:25:46;;;;;;;6.00;5.50;;;;;;;14.77;82.99;97638.81;4889518;28;20835;-63
2022/10/05 10:28:30;;;;;;;6.53;4.97;;;;;;;14.82;82.98;97635.56;4889770;28;20406;-62
2022/10/05 10:31:25;;;;;;;5.80;5.27;;;;;;;14.85;83.85;97641.31;4845646;28;20231;-61
2022/10/05 10:34:13;;;;;;;5.13;4.73;;;;;;;14.81;82.56;97634.75;4884230;28;20650;-58
2022/10/05 10:36:55;;;;;;;6.03;5.30;;;;;;;14.88;84.16;97630.25;4890590;28;20471;-61
2022/10/05 10:39:32;;;;;;;5.23;4.73;;;;;;;14.69;82.96;97623.78;4887532;28;20748;-63
2022/10/05 10:42:32;;;;;;;7.40;6.07;;;;;;;14.79;83.11;97627.94;4913851;28;21155;-60
2022/10/05 10:45:11;;;;;;;8.50;5.53;;;;;;;14.90;82.64;97630.88;4920340;28;20478;-58
2022/10/05 10:47:47;;;;;;;6.03;5.47;;;;;;;15.16;81.63;97617.78;4920109;28;20213;-63
2022/10/05 10:51:06;;;;;;;10.20;9.30;;;;;;;15.40;81.03;97615.56;4896308;28;20237;-54
2022/10/05 10:54:05;;;;;;;6.43;5.93;;;;;;;15.44;79.99;97608.78;4925329;28;20807;-56
2022/10/05 10:56:54;;;;;;;5.37;4.90;;;;;;;15.55;79.39;97616.19;4929845;28;20600;-54
2022/10/05 11:00:05;;;;;;;5.83;5.30;;;;;;;15.72;79.33;97607.72;4931665;28;20534;-58
2022/10/05 11:03:08;;;;;;;5.57;5.15;;;;;;;16.05;78.44;97620.28;4855893;28;20804;-57
2022/10/05 11:05:55;;;;;;;5.40;5.10;;;;;;;15.93;77.50;97621.94;4772382;29;21011;-58
2022/10/05 11:09:02;;;;;;;5.93;5.43;;;;;;;16.09;75.98;97618.00;4801304;29;20465;-60
2022/10/05 11:12:09;;;;;;;5.33;5.03;;;;;;;16.22;76.46;97625.19;4828581;29;21028;-61
2022/10/05 11:15:03;;;;;;;6.57;5.40;;;;;;;16.40;75.27;97611.16;4825114;29;20213;-57
2022/10/05 11:17:50;;;;;;;5.33;4.93;;;;;;;16.49;75.18;97604.53;4820531;29;20687;-61
2022/10/05 11:21:00;;;;;;;6.00;5.50;;;;;;;16.32;74.37;97606.84;4805069;29;20224;-62
2022/10/05 11:24:07;;;;;;;8.33;6.97;;;;;;;16.50;74.98;97606.16;4747833;29;20274;-61
2022/10/05 11:26:46;;;;;;;5.07;4.70;;;;;;;16.76;74.82;97599.06;4748081;29;20211;-61
2022/10/05 11:29:52;;;;;;;6.00;5.40;;;;;;;16.87;73.85;97597.56;4772662;29;20231;-60
2022/10/05 11:32:55;;;;;;;4.77;4.37;;;;;;;16.86;73.25;97588.72;4772564;29;20274;-60
2022/10/05 11:35:45;;;;;;;6.10;5.30;;;;;;;16.89;72.84;97582.13;4774425;29;20223;-59
2022/10/05 11:38:27;;;;;;;5.17;4.67;;;;;;;17.08;73.99;97569.69;4770243;29;20758;-60
2022/10/05 11:41:39;;;;;;;5.63;5.03;;;;;;;17.21;73.00;97576.78;4837304;29;20700;-61
2022/10/05 11:44:37;;;;;;;4.50;4.10;;;;;;;17.20;72.19;97577.81;4835562;29;20365;-60
2022/10/05 11:47:13;;;;;;;4.53;4.23;;;;;;;17.18;71.31;97570.00;4821512;29;20419;-60
2022/10/05 11:49:44;;;;;;;4.43;4.03;;;;;;;17.30;71.70;97569.31;4844547;29;20319;-60
2022/10/05 11:52:18;;;;;;;4.63;4.23;;;;;;;17.26;71.58;97568.09;4800437;29;20221;-61
2022/10/05 11:54:59;;;;;;;4.40;4.00;;;;;;;17.31;71.28;97562.91;4894982;28;20197;-61
2022/10/05 11:57:48;;;;;;;5.70;4.20;;;;;;;17.47;71.03;97558.88;4899469;28;21272;-62
2022/10/05 12:00:19;;;;;;;4.80;4.47;;;;;;;17.53;70.65;97554.50;4929617;28;20229;-61
2022/10/05 12:03:20;;;;;;;4.50;4.20;;;;;;;17.65;70.19;97561.59;4902892;28;20666;-60
2022/10/05 12:06:10;;;;;;;4.37;4.07;;;;;;;17.78;69.97;97549.09;4927975;28;20220;-58
2022/10/05 12:08:50;;;;;;;4.07;3.60;;;;;;;17.97;70.04;97554.47;4876967;28;20229;-60
2022/10/05 12:11:45;;;;;;;4.10;3.87;;;;;;;17.96;69.78;97555.50;4931571;28;20209;-61
2022/10/05 12:14:20;;;;;;;5.90;4.20;;;;;;;18.15;69.03;97545.66;4900359;28;20213;-62
2022/10/05 12:16:51;;;;;;;4.43;4.03;;;;;;;18.19;68.48;97541.50;4902391;28;20210;-61
2022/10/05 12:19:27;;;;;;;4.20;3.90;;;;;;;18.29;68.82;97549.00;4932181;28;22054;-63
2022/10/05 12:21:58;;;;;;;5.72;5.20;;;;;;;18.34;69.73;97539.25;4879338;28;21533;-61
2022/10/05 12:24:43;;;;;;;6.03;5.43;;;;;;;18.24;69.42;97547.00;4928333;28;21102;-58
2022/10/05 12:27:14;;;;;;;4.87;4.30;;;;;;;18.37;68.59;97540.63;4928361;28;20300;-60
2022/10/05 12:29:49;;;;;;;4.40;4.03;;;;;;;18.36;68.83;97541.69;4904898;28;20230;-60
2022/10/05 12:32:19;;;;;;;4.93;4.50;;;;;;;18.33;69.15;97544.81;4931697;28;20296;-59